createdAt,value
2018-09-06T00:01:17.843Z,18.23
2018-09-06T00:03:46.354Z,18.50
2018-09-06T00:06:14.844Z,16.37
2018-09-06T00:08:43.373Z,17.03
2018-09-06T00:11:11.908Z,15.07
2018-09-06T00:13:40.636Z,14.20
2018-09-06T00:16:09.436Z,15.03
2018-09-06T00:18:38.287Z,15.80
2018-09-06T00:21:06.792Z,14.97
2018-09-06T00:23:35.336Z,15.43
2018-09-06T00:26:03.854Z,15.27
2018-09-06T00:28:32.391Z,14.90
2018-09-06T00:31:00.925Z,16.70
2018-09-06T00:33:29.464Z,16.33
2018-09-06T00:35:58.008Z,16.20
2018-09-06T00:38:26.504Z,15.93
2018-09-06T00:40:55.006Z,17.50
2018-09-06T00:43:23.793Z,15.90
2018-09-06T00:45:52.290Z,15.70
2018-09-06T00:48:20.787Z,16.63
2018-09-06T00:50:49.334Z,14.67
2018-09-06T00:53:18.022Z,14.43
2018-09-06T00:55:46.602Z,14.23
2018-09-06T00:58:15.326Z,15.43
2018-09-06T01:00:43.960Z,15.10
2018-09-06T01:03:12.740Z,14.57
2018-09-06T01:05:41.474Z,14.73
2018-09-06T01:08:10.004Z,15.00
2018-09-06T01:10:38.689Z,15.33
2018-09-06T01:13:07.326Z,14.67
2018-09-06T01:15:36.056Z,14.83
2018-09-06T01:18:05.034Z,14.47
2018-09-06T01:20:33.816Z,14.10
2018-09-06T01:23:02.385Z,13.80
2018-09-06T01:25:36.838Z,14.13
2018-09-06T01:28:05.466Z,12.90
2018-09-06T01:30:34.122Z,13.83
2018-09-06T01:33:02.725Z,13.23
2018-09-06T01:35:31.248Z,13.97
2018-09-06T01:37:59.786Z,13.53
2018-09-06T01:40:28.421Z,12.73
2018-09-06T01:42:56.932Z,14.27
2018-09-06T01:45:25.438Z,13.83
2018-09-06T01:47:54.412Z,12.93
2018-09-06T01:50:23.098Z,12.90
2018-09-06T01:52:51.876Z,12.70
2018-09-06T01:55:20.393Z,14.33
2018-09-06T01:57:48.956Z,14.60
2018-09-06T02:00:17.469Z,13.57
2018-09-06T02:02:45.965Z,13.00
2018-09-06T02:05:18.715Z,13.90
2018-09-06T02:07:47.581Z,14.17
2018-09-06T02:10:16.193Z,14.37
2018-09-06T02:12:44.699Z,14.47
2018-09-06T02:15:13.257Z,14.20
2018-09-06T02:17:41.778Z,14.93
2018-09-06T02:20:10.301Z,13.40
2018-09-06T02:22:38.807Z,13.77
2018-09-06T02:25:07.368Z,14.57
2018-09-06T02:27:35.899Z,12.97
2018-09-06T02:30:04.656Z,12.30
2018-09-06T02:32:33.167Z,13.33
2018-09-06T02:35:01.826Z,13.10
2018-09-06T02:37:30.333Z,14.10
2018-09-06T02:39:58.929Z,13.10
2018-09-06T02:42:27.409Z,13.97
2018-09-06T02:44:55.986Z,12.57
2018-09-06T02:47:24.496Z,12.50
2018-09-06T02:49:58.996Z,13.33
2018-09-06T02:52:27.636Z,12.27
2018-09-06T02:54:56.156Z,12.80
2018-09-06T02:57:24.673Z,12.97
2018-09-06T02:59:53.376Z,13.23
2018-09-06T03:02:22.085Z,12.13
2018-09-06T03:04:50.598Z,11.87
2018-09-06T03:07:19.234Z,13.03
2018-09-06T03:09:47.754Z,13.37
2018-09-06T03:12:16.518Z,16.80
2018-09-06T03:14:45.202Z,15.70
2018-09-06T03:17:13.716Z,14.80
2018-09-06T03:19:42.208Z,14.60
2018-09-06T03:22:10.706Z,15.00
2018-09-06T03:24:39.217Z,16.30
2018-09-06T03:27:07.748Z,14.87
2018-09-06T03:29:36.262Z,15.10
2018-09-06T03:32:05.102Z,13.77
2018-09-06T03:34:33.746Z,14.07
2018-09-06T03:37:02.404Z,12.30
2018-09-06T03:39:30.940Z,12.67
2018-09-06T03:41:59.459Z,12.53
2018-09-06T03:44:28.196Z,13.03
2018-09-06T03:46:56.720Z,11.53
2018-09-06T03:49:25.226Z,12.53
2018-09-06T03:51:53.766Z,12.70
2018-09-06T03:54:22.288Z,12.63
2018-09-06T03:56:50.987Z,12.63
2018-09-06T03:59:19.722Z,11.63
2018-09-06T04:01:48.286Z,11.50
2018-09-06T04:04:17.120Z,11.23
2018-09-06T04:06:45.600Z,11.10
2018-09-06T04:09:15.042Z,11.73
2018-09-06T04:11:43.940Z,11.70
2018-09-06T04:14:12.390Z,12.00
2018-09-06T04:16:41.021Z,12.47
2018-09-06T04:19:09.862Z,10.90
2018-09-06T04:21:38.920Z,10.77
2018-09-06T04:24:07.678Z,11.00
2018-09-06T04:26:36.194Z,10.20
2018-09-06T04:29:04.689Z,11.67
2018-09-06T04:31:33.486Z,11.80
2018-09-06T04:34:02.023Z,11.90
2018-09-06T04:36:30.718Z,11.73
2018-09-06T04:38:59.248Z,13.43
2018-09-06T04:41:28.102Z,11.33
2018-09-06T04:43:56.640Z,10.40
2018-09-06T04:46:25.264Z,11.20
2018-09-06T04:48:53.975Z,12.60
2018-09-06T04:51:22.464Z,12.00
2018-09-06T04:53:51.051Z,11.37
2018-09-06T04:56:19.578Z,12.97
2018-09-06T04:58:48.168Z,14.43
2018-09-06T05:01:16.727Z,13.43
2018-09-06T05:03:45.721Z,13.33
2018-09-06T05:06:16.075Z,13.40
2018-09-06T05:08:44.618Z,15.03
2018-09-06T05:11:13.497Z,15.30
2018-09-06T05:13:42.065Z,13.67
2018-09-06T05:16:10.603Z,11.93
2018-09-06T05:18:39.195Z,13.20
2018-09-06T05:21:08.213Z,13.37
2018-09-06T05:23:37.091Z,13.83
2018-09-06T05:26:06.088Z,13.33
2018-09-06T05:28:34.704Z,13.30
2018-09-06T05:31:03.325Z,12.57
2018-09-06T05:33:31.811Z,12.80
2018-09-06T05:36:00.347Z,12.57
2018-09-06T05:38:28.909Z,12.37
2018-09-06T05:40:57.428Z,10.73
2018-09-06T05:43:25.979Z,10.80
2018-09-06T05:45:54.608Z,10.70
2018-09-06T05:48:23.348Z,10.90
2018-09-06T05:50:51.900Z,11.40
2018-09-06T05:53:20.431Z,10.80
2018-09-06T05:55:49.092Z,10.80
2018-09-06T05:58:17.716Z,10.43
2018-09-06T06:00:48.337Z,11.67
2018-09-06T06:03:16.970Z,10.57
2018-09-06T06:05:45.544Z,11.37
2018-09-06T06:08:25.094Z,12.30
2018-09-06T06:10:53.603Z,12.37
2018-09-06T06:13:22.104Z,11.80
2018-09-06T06:15:50.612Z,12.20
2018-09-06T06:18:19.118Z,12.10
2018-09-06T06:20:47.636Z,11.33
2018-09-06T06:23:16.212Z,12.50
2018-09-06T06:25:44.947Z,14.33
2018-09-06T06:28:13.677Z,12.77
2018-09-06T06:30:42.221Z,15.37
2018-09-06T06:33:10.703Z,15.40
2018-09-06T06:35:39.208Z,14.10
2018-09-06T06:38:07.838Z,17.00
2018-09-06T06:40:36.582Z,14.77
2018-09-06T06:43:05.133Z,16.70
2018-09-06T06:45:33.699Z,17.77
2018-09-06T06:48:02.239Z,17.80
2018-09-06T06:50:31.110Z,18.57
2018-09-06T06:52:59.660Z,15.13
2018-09-06T06:55:28.297Z,17.30
2018-09-06T06:57:56.827Z,17.27
2018-09-06T07:00:25.351Z,16.77
2018-09-06T07:02:53.895Z,21.93
2018-09-06T07:05:22.467Z,20.30
2018-09-06T07:07:50.985Z,19.07
2018-09-06T07:10:20.604Z,18.87
2018-09-06T07:12:49.340Z,18.10
2018-09-06T07:15:17.925Z,17.97
2018-09-06T07:17:46.464Z,19.13
2018-09-06T07:26:02.244Z,11.93
2018-09-06T07:28:38.380Z,11.17
2018-09-06T07:31:08.633Z,10.97
2018-09-06T07:40:36.390Z,7.97
2018-09-06T08:00:01.589Z,6.90
2018-09-06T08:45:53.978Z,3.50
2018-09-06T08:48:22.795Z,3.07
2018-09-06T08:51:00.920Z,2.50
2018-09-06T08:53:36.013Z,1.80
2018-09-06T09:03:16.117Z,1.40
2018-09-06T09:06:15.522Z,1.73
2018-09-06T09:08:47.260Z,1.60
2018-09-06T09:14:10.285Z,1.73
2018-09-06T09:16:39.366Z,1.87
2018-09-06T09:19:08.820Z,2.40
2018-09-06T09:21:37.637Z,2.30
2018-09-06T09:24:07.333Z,2.60
2018-09-06T09:26:40.221Z,2.47
2018-09-06T09:29:17.897Z,3.10
2018-09-06T09:31:46.906Z,2.60
2018-09-06T09:34:15.967Z,2.90
2018-09-06T09:36:44.716Z,2.87
2018-09-06T09:39:13.533Z,2.60
2018-09-06T09:41:42.357Z,2.20
2018-09-06T09:44:11.205Z,2.20
2018-09-06T09:49:16.796Z,1.90
2018-09-06T09:51:49.003Z,1.80
2018-09-06T09:54:18.639Z,1.70
2018-09-06T09:56:47.669Z,1.40
2018-09-06T09:59:16.487Z,1.53
2018-09-06T10:01:52.192Z,1.53
2018-09-06T10:06:46.352Z,1.40
2018-09-06T10:09:21.897Z,1.73
2018-09-06T10:11:50.777Z,1.43
2018-09-06T10:14:35.999Z,1.40
2018-09-06T10:17:59.961Z,1.70
2018-09-06T10:20:28.724Z,2.00
2018-09-06T10:22:57.730Z,2.30
2018-09-06T10:25:27.357Z,2.50
2018-09-06T10:27:57.762Z,2.37
2018-09-06T10:30:26.931Z,2.90
2018-09-06T10:32:56.260Z,2.67
2018-09-06T10:38:16.614Z,2.70
2018-09-06T10:40:45.656Z,2.70
2018-09-06T10:43:14.406Z,2.40
2018-09-06T10:45:44.267Z,2.37
2018-09-06T10:48:13.129Z,2.10
2018-09-06T10:50:41.855Z,2.10
2018-09-06T10:53:21.422Z,2.00
2018-09-06T10:56:00.974Z,2.10
2018-09-06T10:58:31.676Z,1.90
2018-09-06T11:01:05.844Z,2.20
2018-09-06T11:06:14.646Z,2.30
2018-09-06T11:08:43.567Z,2.30
2018-09-06T11:11:12.286Z,2.33
2018-09-06T11:13:41.116Z,2.90
2018-09-06T11:16:11.028Z,2.40
2018-09-06T11:18:44.601Z,2.73
2018-09-06T11:21:13.701Z,3.00
2018-09-06T11:23:54.296Z,2.97
2018-09-06T11:26:23.073Z,3.00
2018-09-06T11:28:53.959Z,3.10
2018-09-06T11:31:36.009Z,3.00
2018-09-06T11:34:04.887Z,2.47
2018-09-06T11:36:34.045Z,2.80
2018-09-06T11:39:02.805Z,2.70
2018-09-06T11:41:45.903Z,3.07
2018-09-06T11:44:42.910Z,3.10
2018-09-06T11:47:23.394Z,3.23
2018-09-06T11:49:52.435Z,3.13
2018-09-06T11:55:36.356Z,3.50
2018-09-06T12:01:01.020Z,2.83
2018-09-06T12:03:30.117Z,3.00
2018-09-06T12:06:23.784Z,2.80
2018-09-06T12:08:53.039Z,2.90
2018-09-06T12:11:21.912Z,3.10
2018-09-06T12:13:50.883Z,2.93
2018-09-06T12:16:20.687Z,3.07
2018-09-06T12:18:49.497Z,2.83
2018-09-06T12:21:19.987Z,2.80
2018-09-06T12:23:48.760Z,3.20
2018-09-06T12:26:20.038Z,2.60
2018-09-06T12:28:48.930Z,2.43
2018-09-06T12:31:17.640Z,2.50
2018-09-06T12:33:46.559Z,2.50
2018-09-06T12:36:16.051Z,2.70
2018-09-06T12:38:45.096Z,2.90
2018-09-06T12:41:13.824Z,2.67
2018-09-06T12:43:43.120Z,2.77
2018-09-06T12:46:16.228Z,2.50
2018-09-06T12:48:45.411Z,2.77
2018-09-06T12:51:14.495Z,2.37
2018-09-06T12:53:44.770Z,2.43
2018-09-06T12:56:15.085Z,2.63
2018-09-06T12:58:44.156Z,2.50
2018-09-06T13:01:13.455Z,2.43
2018-09-06T13:03:42.527Z,2.00
2018-09-06T13:06:11.291Z,2.60
2018-09-06T13:08:40.018Z,2.70
2018-09-06T13:11:08.708Z,2.33
2018-09-06T13:13:37.518Z,2.40
2018-09-06T13:16:06.424Z,2.40
2018-09-06T13:18:36.070Z,2.47
2018-09-06T13:21:04.700Z,2.47
2018-09-06T13:23:45.806Z,2.50
2018-09-06T13:26:16.949Z,2.17
2018-09-06T13:28:45.989Z,2.60
2018-09-06T13:31:15.155Z,2.77
2018-09-06T13:33:51.086Z,2.90
2018-09-06T13:36:19.944Z,2.57
2018-09-06T13:38:48.747Z,2.30
2018-09-06T13:41:17.563Z,2.47
2018-09-06T13:43:46.888Z,2.20
2018-09-06T13:46:15.692Z,2.30
2018-09-06T13:48:44.597Z,2.30
2018-09-06T13:51:13.406Z,2.10
2018-09-06T13:53:42.430Z,2.40
2018-09-06T13:56:11.346Z,2.43
2018-09-06T13:58:41.038Z,2.73
2018-09-06T14:01:09.937Z,2.40
2018-09-06T14:03:38.657Z,2.57
2018-09-06T14:06:10.932Z,2.57
2018-09-06T14:08:39.615Z,2.90
2018-09-06T14:11:11.004Z,2.83
2018-09-06T14:13:39.724Z,3.10
2018-09-06T14:16:08.463Z,3.00
2018-09-06T14:18:37.630Z,2.90
2018-09-06T14:21:06.940Z,3.20
2018-09-06T14:23:35.661Z,2.70
2018-09-06T14:26:04.840Z,3.10
2018-09-06T14:28:33.871Z,3.30
2018-09-06T14:31:02.884Z,3.20
2018-09-06T14:33:32.410Z,3.33
2018-09-06T14:36:04.170Z,2.93
2018-09-06T14:38:32.929Z,3.30
2018-09-06T14:41:02.320Z,3.40
2018-09-06T14:43:31.764Z,3.00
2018-09-06T14:46:03.446Z,2.97
2018-09-06T14:48:32.270Z,2.80
2018-09-06T14:51:01.117Z,3.50
2018-09-06T14:53:34.524Z,2.83
2018-09-06T14:56:06.742Z,2.97
2018-09-06T14:58:38.229Z,2.90
2018-09-06T15:01:12.867Z,3.30
2018-09-06T15:03:41.633Z,3.10
2018-09-06T15:06:10.481Z,3.20
2018-09-06T15:08:40.048Z,3.53
2018-09-06T15:11:09.656Z,3.10
2018-09-06T15:13:38.616Z,3.60
2018-09-06T15:16:10.499Z,3.10
2018-09-06T15:18:39.256Z,3.23
2018-09-06T15:21:07.880Z,3.13
2018-09-06T15:23:36.630Z,3.10
2018-09-06T15:26:05.504Z,3.23
2018-09-06T15:28:35.292Z,3.30
2018-09-06T15:31:04.442Z,3.27
2018-09-06T15:33:33.234Z,3.03
2018-09-06T15:36:02.015Z,3.43
2018-09-06T15:38:30.830Z,3.13
2018-09-06T15:40:59.636Z,3.00
2018-09-06T15:43:28.840Z,3.00
2018-09-06T15:45:58.544Z,2.80
2018-09-06T15:48:27.567Z,3.00
2018-09-06T15:50:57.077Z,3.33
2018-09-06T15:53:26.077Z,2.97
2018-09-06T15:55:54.887Z,3.00
2018-09-06T15:58:24.131Z,3.00
2018-09-06T16:00:52.927Z,2.90
2018-09-06T16:03:21.807Z,3.03
2018-09-06T16:05:50.675Z,3.20
2018-09-06T16:08:19.678Z,2.97
2018-09-06T16:10:59.702Z,2.87
2018-09-06T16:13:28.670Z,3.20
2018-09-06T16:15:57.528Z,2.93
2018-09-06T16:18:26.436Z,3.10
2018-09-06T16:20:55.278Z,3.40
2018-09-06T16:23:24.145Z,3.07
2018-09-06T16:25:52.935Z,2.90
2018-09-06T16:28:21.765Z,3.00
2018-09-06T16:30:50.739Z,2.93
2018-09-06T16:33:19.801Z,2.97
2018-09-06T16:35:48.591Z,2.80
2018-09-06T16:38:17.676Z,2.90
2018-09-06T16:40:48.162Z,2.60
2018-09-06T16:43:17.187Z,2.83
2018-09-06T16:45:46.083Z,2.80
2018-09-06T16:48:15.010Z,3.17
2018-09-06T16:50:44.876Z,2.70
2018-09-06T16:53:13.917Z,2.87
2018-09-06T16:55:42.704Z,2.90
2018-09-06T16:58:11.715Z,2.80
2018-09-06T17:00:40.709Z,3.30
2018-09-06T17:03:09.591Z,2.90
2018-09-06T17:05:38.642Z,2.80
2018-09-06T17:08:07.731Z,2.80
2018-09-06T17:10:36.741Z,3.10
2018-09-06T17:13:05.706Z,2.80
2018-09-06T17:15:34.507Z,2.70
2018-09-06T17:18:03.874Z,3.00
2018-09-06T17:20:32.666Z,2.70
2018-09-06T17:23:01.574Z,2.87
2018-09-06T17:25:30.346Z,2.87
2018-09-06T17:27:59.197Z,2.90
2018-09-06T17:30:28.158Z,2.70
2018-09-06T17:32:57.166Z,3.00
2018-09-06T17:35:25.970Z,2.80
2018-09-06T17:37:54.807Z,2.80
2018-09-06T17:40:25.734Z,2.67
2018-09-06T17:42:54.794Z,3.20
2018-09-06T17:45:24.216Z,3.00
2018-09-06T17:47:53.154Z,2.90
2018-09-06T17:50:22.127Z,3.20
2018-09-06T17:52:52.755Z,3.50
2018-09-06T17:55:21.956Z,3.03
2018-09-06T17:57:51.899Z,3.30
2018-09-06T18:00:20.829Z,3.60
2018-09-06T18:02:49.743Z,4.10
2018-09-06T18:05:18.608Z,4.00
2018-09-06T18:07:47.613Z,4.33
2018-09-06T18:10:16.725Z,4.27
2018-09-06T18:12:45.661Z,4.27
2018-09-06T18:15:14.640Z,4.43
2018-09-06T18:17:43.906Z,4.70
2018-09-06T18:20:12.659Z,4.93
2018-09-06T18:22:41.678Z,5.00
2018-09-06T18:25:10.743Z,5.23
2018-09-06T18:27:39.913Z,5.33
2018-09-06T18:32:16.110Z,5.20
2018-09-06T18:34:45.284Z,5.67
2018-09-06T18:37:14.469Z,6.13
2018-09-06T18:39:43.604Z,5.80
2018-09-06T18:42:12.646Z,5.87
2018-09-06T18:44:41.851Z,6.00
2018-09-06T18:47:10.878Z,6.10
2018-09-06T18:49:40.405Z,5.73
2018-09-06T18:52:16.395Z,5.80
2018-09-06T18:54:46.527Z,6.17
2018-09-06T18:57:15.969Z,6.13
2018-09-06T18:59:45.129Z,5.93
2018-09-06T19:02:14.296Z,6.13
2018-09-06T19:04:43.351Z,5.90
2018-09-06T19:07:12.469Z,6.37
2018-09-06T19:09:41.613Z,6.77
2018-09-06T19:12:10.752Z,6.10
2018-09-06T19:14:40.080Z,5.83
2018-09-06T19:17:09.173Z,5.97
2018-09-06T19:19:38.352Z,6.80
2018-09-06T19:22:07.558Z,6.30
2018-09-06T19:24:36.662Z,6.93
2018-09-06T19:27:06.089Z,6.47
2018-09-06T19:29:35.273Z,6.57
2018-09-06T19:32:04.505Z,6.43
2018-09-06T19:34:33.552Z,7.63
2018-09-06T19:37:02.795Z,7.30
2018-09-06T19:39:33.814Z,6.90
2018-09-06T19:42:03.137Z,7.73
2018-09-06T19:44:32.337Z,7.73
2018-09-06T19:47:01.788Z,8.70
2018-09-06T19:49:30.871Z,8.73
2018-09-06T19:52:00.248Z,7.63
2018-09-06T19:54:29.340Z,7.90
2018-09-06T19:57:16.119Z,8.27
2018-09-06T19:59:45.267Z,7.70
2018-09-06T20:02:14.593Z,8.43
2018-09-06T20:04:43.616Z,9.27
2018-09-06T20:07:12.569Z,9.43
2018-09-06T20:09:41.791Z,8.70
2018-09-06T20:12:10.870Z,9.90
2018-09-06T20:14:39.851Z,9.33
2018-09-06T20:17:09.171Z,9.27
2018-09-06T20:22:34.920Z,9.90
2018-09-06T20:25:24.330Z,9.30
2018-09-06T20:27:54.402Z,10.53
2018-09-06T20:33:00.297Z,11.53
2018-09-06T20:35:29.272Z,11.43
2018-09-06T20:37:58.597Z,11.73
2018-09-06T20:40:27.877Z,13.43
2018-09-06T20:43:16.771Z,11.83
2018-09-06T20:45:46.077Z,13.73
2018-09-06T20:48:15.609Z,13.77
2018-09-06T20:50:44.791Z,14.80
2018-09-06T20:53:13.925Z,14.97
2018-09-06T20:55:42.963Z,15.23
2018-09-06T20:58:11.992Z,15.40
2018-09-06T21:00:41.136Z,15.67
2018-09-06T21:03:10.120Z,17.40
2018-09-06T21:05:42.399Z,17.63
2018-09-06T21:08:11.498Z,17.67
2018-09-06T21:10:40.549Z,16.20
2018-09-06T21:13:09.696Z,18.93
2018-09-06T21:15:38.655Z,19.63
2018-09-06T21:18:07.664Z,19.47
2018-09-06T21:20:36.591Z,21.23
2018-09-06T21:23:05.532Z,20.63
2018-09-06T21:25:34.448Z,22.57
2018-09-06T21:28:03.316Z,24.50
2018-09-06T21:30:32.232Z,24.93
2018-09-06T21:33:01.174Z,26.70
2018-09-06T21:35:30.202Z,27.87
2018-09-06T21:38:00.155Z,29.50
2018-09-06T21:40:29.232Z,28.80
2018-09-06T21:42:58.586Z,28.47
2018-09-06T21:45:27.532Z,27.83
2018-09-06T21:47:56.472Z,28.93
2018-09-06T21:50:25.308Z,30.60
2018-09-06T21:52:54.165Z,30.30
2018-09-06T21:55:23.077Z,31.60
2018-09-06T21:57:52.231Z,29.97
2018-09-06T22:00:21.086Z,28.77
2018-09-06T22:02:55.159Z,29.77
2018-09-06T22:05:24.125Z,30.60
2018-09-06T22:07:53.069Z,30.07
2018-09-06T22:10:22.847Z,29.60
2018-09-06T22:12:52.652Z,29.13
2018-09-06T22:15:21.766Z,27.30
2018-09-06T22:17:50.568Z,28.40
2018-09-06T22:20:19.511Z,28.30
2018-09-06T22:22:48.403Z,28.43
2018-09-06T22:25:25.298Z,26.97
2018-09-06T22:27:54.185Z,26.50
2018-09-06T22:30:23.212Z,27.07
2018-09-06T22:32:52.157Z,26.83
2018-09-06T22:35:27.025Z,25.20
2018-09-06T22:37:55.984Z,24.60
2018-09-06T22:40:25.038Z,26.30
2018-09-06T22:42:54.197Z,25.17
2018-09-06T22:45:23.109Z,25.30
2018-09-06T22:47:51.884Z,24.67
2018-09-06T22:50:20.838Z,23.30
2018-09-06T22:52:57.266Z,23.23
2018-09-06T22:55:26.433Z,22.83
2018-09-06T22:57:55.287Z,24.03
2018-09-06T23:00:30.060Z,22.97
2018-09-06T23:04:02.394Z,24.47
2018-09-06T23:06:31.284Z,23.57
2018-09-06T23:09:00.221Z,23.60
2018-09-06T23:11:29.159Z,21.90
2018-09-06T23:13:58.240Z,23.10
2018-09-06T23:16:27.426Z,22.17
2018-09-06T23:18:56.287Z,22.70
2018-09-06T23:21:28.201Z,22.67
2018-09-06T23:23:57.160Z,23.07
2018-09-06T23:26:25.952Z,22.33
2018-09-06T23:28:55.684Z,22.67
2018-09-06T23:31:24.553Z,21.87
2018-09-06T23:33:53.424Z,22.07
2018-09-06T23:36:22.308Z,24.00
2018-09-06T23:38:51.267Z,21.87
2018-09-06T23:41:20.281Z,21.90
2018-09-06T23:43:49.188Z,21.97
2018-09-06T23:46:18.282Z,21.50
2018-09-06T23:48:47.262Z,20.90
2018-09-06T23:51:16.132Z,21.73
2018-09-06T23:53:45.110Z,20.17
2018-09-06T23:56:15.663Z,20.50
